sensor_id;sensor_type;location;lat;lon;timestamp;P1;durP1;ratioP1;P2;durP2;ratioP2
20657;SDS011;10488;50.846;4.078;2022-08-18T00:02:19;94.07;;;56.15;;
20657;SDS011;10488;50.846;4.078;2022-08-18T00:04:51;93.85;;;56.63;;
20657;SDS011;10488;50.846;4.078;2022-08-18T00:07:20;98.13;;;56.13;;
20657;SDS011;10488;50.846;4.078;2022-08-18T00:09:48;94.68;;;55.42;;
20657;SDS011;10488;50.846;4.078;2022-08-18T00:12:57;107.35;;;61.65;;
20657;SDS011;10488;50.846;4.078;2022-08-18T00:15:05;109.03;;;61.25;;
20657;SDS011;10488;50.846;4.078;2022-08-18T00:17:33;125.53;;;65.85;;
20657;SDS011;10488;50.846;4.078;2022-08-18T00:19:59;124.25;;;66.18;;
20657;SDS011;10488;50.846;4.078;2022-08-18T00:22:26;123.00;;;65.82;;
20657;SDS011;10488;50.846;4.078;2022-08-18T00:24:52;176.55;;;83.80;;
20657;SDS011;10488;50.846;4.078;2022-08-18T00:27:21;177.40;;;81.57;;
20657;SDS011;10488;50.846;4.078;2022-08-18T00:29:49;269.05;;;95.15;;
20657;SDS011;10488;50.846;4.078;2022-08-18T00:32:21;184.90;;;85.15;;
20657;SDS011;10488;50.846;4.078;2022-08-18T00:35:03;176.93;;;84.40;;
20657;SDS011;10488;50.846;4.078;2022-08-18T00:37:40;191.32;;;85.60;;
20657;SDS011;10488;50.846;4.078;2022-08-18T00:40:07;219.73;;;92.10;;
20657;SDS011;10488;50.846;4.078;2022-08-18T00:42:39;171.85;;;83.03;;
20657;SDS011;10488;50.846;4.078;2022-08-18T00:45:08;159.07;;;81.45;;
20657;SDS011;10488;50.846;4.078;2022-08-18T00:47:39;216.95;;;88.13;;
20657;SDS011;10488;50.846;4.078;2022-08-18T00:50:04;213.40;;;89.57;;
20657;SDS011;10488;50.846;4.078;2022-08-18T00:52:31;272.08;;;88.03;;
20657;SDS011;10488;50.846;4.078;2022-08-18T00:54:57;220.45;;;86.47;;
20657;SDS011;10488;50.846;4.078;2022-08-18T00:57:26;206.25;;;86.03;;
20657;SDS011;10488;50.846;4.078;2022-08-18T00:59:58;171.00;;;80.70;;
20657;SDS011;10488;50.846;4.078;2022-08-18T01:02:36;176.95;;;83.00;;
20657;SDS011;10488;50.846;4.078;2022-08-18T01:05:12;165.48;;;82.30;;
20657;SDS011;10488;50.846;4.078;2022-08-18T01:07:46;184.77;;;83.53;;
20657;SDS011;10488;50.846;4.078;2022-08-18T01:10:13;153.77;;;78.38;;
20657;SDS011;10488;50.846;4.078;2022-08-18T01:12:43;156.75;;;81.97;;
20657;SDS011;10488;50.846;4.078;2022-08-18T01:15:10;167.93;;;82.47;;
20657;SDS011;10488;50.846;4.078;2022-08-18T01:17:40;260.25;;;88.63;;
20657;SDS011;10488;50.846;4.078;2022-08-18T01:20:27;161.02;;;77.35;;
20657;SDS011;10488;50.846;4.078;2022-08-18T01:23:17;169.90;;;79.55;;
20657;SDS011;10488;50.846;4.078;2022-08-18T01:25:45;181.07;;;82.53;;
20657;SDS011;10488;50.846;4.078;2022-08-18T01:28:27;206.55;;;88.03;;
20657;SDS011;10488;50.846;4.078;2022-08-18T01:30:55;181.80;;;86.57;;
20657;SDS011;10488;50.846;4.078;2022-08-18T01:33:26;186.13;;;87.30;;
20657;SDS011;10488;50.846;4.078;2022-08-18T01:36:00;165.02;;;80.95;;
20657;SDS011;10488;50.846;4.078;2022-08-18T01:38:31;165.43;;;81.85;;
20657;SDS011;10488;50.846;4.078;2022-08-18T01:40:57;190.48;;;85.15;;
20657;SDS011;10488;50.846;4.078;2022-08-18T01:43:23;260.48;;;92.05;;
20657;SDS011;10488;50.846;4.078;2022-08-18T01:45:49;206.02;;;86.78;;
20657;SDS011;10488;50.846;4.078;2022-08-18T01:48:15;220.45;;;89.75;;
20657;SDS011;10488;50.846;4.078;2022-08-18T01:50:41;339.35;;;85.80;;
20657;SDS011;10488;50.846;4.078;2022-08-18T01:53:08;281.20;;;78.20;;
20657;SDS011;10488;50.846;4.078;2022-08-18T01:55:36;189.55;;;69.22;;
20657;SDS011;10488;50.846;4.078;2022-08-18T01:58:06;221.77;;;75.53;;
20657;SDS011;10488;50.846;4.078;2022-08-18T02:00:32;143.55;;;68.75;;
20657;SDS011;10488;50.846;4.078;2022-08-18T02:02:58;199.55;;;77.15;;
20657;SDS011;10488;50.846;4.078;2022-08-18T02:05:37;265.30;;;82.18;;
20657;SDS011;10488;50.846;4.078;2022-08-18T02:08:07;232.27;;;75.78;;
20657;SDS011;10488;50.846;4.078;2022-08-18T02:10:33;314.15;;;85.35;;
20657;SDS011;10488;50.846;4.078;2022-08-18T02:12:59;230.02;;;81.25;;
20657;SDS011;10488;50.846;4.078;2022-08-18T02:15:24;203.50;;;74.15;;
20657;SDS011;10488;50.846;4.078;2022-08-18T02:17:50;236.15;;;75.57;;
20657;SDS011;10488;50.846;4.078;2022-08-18T02:20:17;240.52;;;76.95;;
20657;SDS011;10488;50.846;4.078;2022-08-18T02:22:45;260.08;;;76.00;;
20657;SDS011;10488;50.846;4.078;2022-08-18T02:25:11;170.07;;;68.95;;
20657;SDS011;10488;50.846;4.078;2022-08-18T02:27:38;267.60;;;82.10;;
20657;SDS011;10488;50.846;4.078;2022-08-18T02:30:06;219.50;;;73.43;;
20657;SDS011;10488;50.846;4.078;2022-08-18T02:32:35;284.67;;;77.75;;
20657;SDS011;10488;50.846;4.078;2022-08-18T02:35:03;205.77;;;74.28;;
20657;SDS011;10488;50.846;4.078;2022-08-18T02:37:32;186.27;;;70.25;;
20657;SDS011;10488;50.846;4.078;2022-08-18T02:39:58;306.95;;;73.18;;
20657;SDS011;10488;50.846;4.078;2022-08-18T02:42:24;174.23;;;65.35;;
20657;SDS011;10488;50.846;4.078;2022-08-18T02:44:50;330.92;;;83.47;;
20657;SDS011;10488;50.846;4.078;2022-08-18T02:47:19;414.27;;;95.00;;
20657;SDS011;10488;50.846;4.078;2022-08-18T02:49:46;390.60;;;90.00;;
20657;SDS011;10488;50.846;4.078;2022-08-18T02:52:11;282.77;;;89.07;;
20657;SDS011;10488;50.846;4.078;2022-08-18T02:54:37;298.92;;;92.57;;
20657;SDS011;10488;50.846;4.078;2022-08-18T02:57:06;277.67;;;88.00;;
20657;SDS011;10488;50.846;4.078;2022-08-18T02:59:37;371.05;;;94.50;;
20657;SDS011;10488;50.846;4.078;2022-08-18T03:02:04;261.17;;;84.38;;
20657;SDS011;10488;50.846;4.078;2022-08-18T03:04:31;212.43;;;79.55;;
20657;SDS011;10488;50.846;4.078;2022-08-18T03:06:58;330.60;;;76.95;;
20657;SDS011;10488;50.846;4.078;2022-08-18T03:09:26;324.35;;;77.57;;
20657;SDS011;10488;50.846;4.078;2022-08-18T03:11:52;554.97;;;111.65;;
20657;SDS011;10488;50.846;4.078;2022-08-18T03:14:18;335.92;;;82.38;;
20657;SDS011;10488;50.846;4.078;2022-08-18T03:16:45;453.17;;;85.85;;
20657;SDS011;10488;50.846;4.078;2022-08-18T03:19:12;294.48;;;80.55;;
20657;SDS011;10488;50.846;4.078;2022-08-18T03:21:41;379.48;;;83.70;;
20657;SDS011;10488;50.846;4.078;2022-08-18T03:24:09;343.50;;;80.28;;
20657;SDS011;10488;50.846;4.078;2022-08-18T03:26:38;278.13;;;79.30;;
20657;SDS011;10488;50.846;4.078;2022-08-18T03:29:05;239.20;;;79.43;;
20657;SDS011;10488;50.846;4.078;2022-08-18T03:31:31;308.75;;;80.82;;
20657;SDS011;10488;50.846;4.078;2022-08-18T03:33:58;232.68;;;81.28;;
20657;SDS011;10488;50.846;4.078;2022-08-18T03:36:27;1036.47;;;157.93;;
20657;SDS011;10488;50.846;4.078;2022-08-18T03:38:56;820.47;;;127.90;;
20657;SDS011;10488;50.846;4.078;2022-08-18T03:41:23;822.28;;;137.10;;
20657;SDS011;10488;50.846;4.078;2022-08-18T03:43:50;437.92;;;100.38;;
20657;SDS011;10488;50.846;4.078;2022-08-18T03:46:17;358.75;;;95.78;;
20657;SDS011;10488;50.846;4.078;2022-08-18T03:48:44;311.50;;;90.32;;
20657;SDS011;10488;50.846;4.078;2022-08-18T03:51:19;472.75;;;99.43;;
20657;SDS011;10488;50.846;4.078;2022-08-18T03:53:48;532.10;;;98.82;;
20657;SDS011;10488;50.846;4.078;2022-08-18T03:56:15;454.88;;;89.00;;
20657;SDS011;10488;50.846;4.078;2022-08-18T03:58:47;210.13;;;76.50;;
20657;SDS011;10488;50.846;4.078;2022-08-18T04:01:15;364.80;;;85.63;;
20657;SDS011;10488;50.846;4.078;2022-08-18T04:03:43;526.13;;;91.47;;
20657;SDS011;10488;50.846;4.078;2022-08-18T04:06:18;239.43;;;71.03;;
20657;SDS011;10488;50.846;4.078;2022-08-18T04:08:46;233.82;;;72.95;;
20657;SDS011;10488;50.846;4.078;2022-08-18T04:11:18;265.58;;;70.80;;
20657;SDS011;10488;50.846;4.078;2022-08-18T04:13:44;412.27;;;76.50;;
20657;SDS011;10488;50.846;4.078;2022-08-18T04:16:10;183.93;;;70.72;;
20657;SDS011;10488;50.846;4.078;2022-08-18T04:18:36;211.80;;;74.03;;
20657;SDS011;10488;50.846;4.078;2022-08-18T04:21:06;301.67;;;81.78;;
20657;SDS011;10488;50.846;4.078;2022-08-18T04:23:34;315.73;;;75.32;;
20657;SDS011;10488;50.846;4.078;2022-08-18T04:26:00;302.63;;;80.82;;
20657;SDS011;10488;50.846;4.078;2022-08-18T04:28:27;294.38;;;79.45;;
20657;SDS011;10488;50.846;4.078;2022-08-18T04:30:53;343.92;;;85.43;;
20657;SDS011;10488;50.846;4.078;2022-08-18T04:33:23;747.38;;;117.40;;
20657;SDS011;10488;50.846;4.078;2022-08-18T04:35:50;392.90;;;95.47;;
20657;SDS011;10488;50.846;4.078;2022-08-18T04:38:16;201.60;;;78.82;;
20657;SDS011;10488;50.846;4.078;2022-08-18T04:40:41;554.20;;;103.25;;
20657;SDS011;10488;50.846;4.078;2022-08-18T04:43:07;306.98;;;88.68;;
20657;SDS011;10488;50.846;4.078;2022-08-18T04:45:39;635.50;;;109.88;;
20657;SDS011;10488;50.846;4.078;2022-08-18T04:48:15;252.43;;;77.50;;
20657;SDS011;10488;50.846;4.078;2022-08-18T04:50:41;508.60;;;105.93;;
20657;SDS011;10488;50.846;4.078;2022-08-18T04:53:07;473.88;;;101.80;;
20657;SDS011;10488;50.846;4.078;2022-08-18T04:55:52;565.25;;;99.32;;
20657;SDS011;10488;50.846;4.078;2022-08-18T04:58:20;359.65;;;86.45;;
20657;SDS011;10488;50.846;4.078;2022-08-18T05:00:55;437.17;;;92.78;;
20657;SDS011;10488;50.846;4.078;2022-08-18T05:03:23;194.25;;;77.22;;
20657;SDS011;10488;50.846;4.078;2022-08-18T05:05:51;404.90;;;94.75;;
20657;SDS011;10488;50.846;4.078;2022-08-18T05:08:18;327.88;;;87.63;;
20657;SDS011;10488;50.846;4.078;2022-08-18T05:10:43;233.02;;;80.85;;
20657;SDS011;10488;50.846;4.078;2022-08-18T05:13:11;182.50;;;74.45;;
20657;SDS011;10488;50.846;4.078;2022-08-18T05:15:40;190.85;;;73.97;;
20657;SDS011;10488;50.846;4.078;2022-08-18T05:18:07;185.05;;;73.68;;
20657;SDS011;10488;50.846;4.078;2022-08-18T05:20:35;160.07;;;71.22;;
20657;SDS011;10488;50.846;4.078;2022-08-18T05:23:01;208.48;;;74.55;;
20657;SDS011;10488;50.846;4.078;2022-08-18T05:25:27;465.92;;;96.55;;
20657;SDS011;10488;50.846;4.078;2022-08-18T05:27:53;500.58;;;105.80;;
20657;SDS011;10488;50.846;4.078;2022-08-18T05:30:19;280.13;;;85.28;;
20657;SDS011;10488;50.846;4.078;2022-08-18T05:32:45;427.40;;;91.22;;
20657;SDS011;10488;50.846;4.078;2022-08-18T05:35:46;411.92;;;91.50;;
20657;SDS011;10488;50.846;4.078;2022-08-18T05:41:01;173.45;;;69.78;;
20657;SDS011;10488;50.846;4.078;2022-08-18T05:43:46;196.18;;;75.93;;
20657;SDS011;10488;50.846;4.078;2022-08-18T05:46:13;245.13;;;77.75;;
20657;SDS011;10488;50.846;4.078;2022-08-18T05:48:40;215.18;;;78.22;;
20657;SDS011;10488;50.846;4.078;2022-08-18T05:51:09;162.23;;;73.68;;
20657;SDS011;10488;50.846;4.078;2022-08-18T05:53:39;166.20;;;71.03;;
20657;SDS011;10488;50.846;4.078;2022-08-18T05:56:26;187.43;;;73.10;;
20657;SDS011;10488;50.846;4.078;2022-08-18T05:59:20;181.10;;;66.95;;
20657;SDS011;10488;50.846;4.078;2022-08-18T06:01:50;146.90;;;64.75;;
20657;SDS011;10488;50.846;4.078;2022-08-18T06:04:29;112.85;;;61.15;;
20657;SDS011;10488;50.846;4.078;2022-08-18T06:07:06;129.40;;;63.65;;
20657;SDS011;10488;50.846;4.078;2022-08-18T06:12:24;142.90;;;70.07;;
20657;SDS011;10488;50.846;4.078;2022-08-18T06:26:33;160.15;;;69.75;;
20657;SDS011;10488;50.846;4.078;2022-08-18T06:37:30;145.98;;;68.65;;
20657;SDS011;10488;50.846;4.078;2022-08-18T06:40:39;119.95;;;64.43;;
20657;SDS011;10488;50.846;4.078;2022-08-18T06:43:06;142.07;;;64.85;;
20657;SDS011;10488;50.846;4.078;2022-08-18T06:45:39;121.90;;;65.80;;
20657;SDS011;10488;50.846;4.078;2022-08-18T06:50:47;186.38;;;72.07;;
20657;SDS011;10488;50.846;4.078;2022-08-18T06:53:20;138.60;;;69.90;;
20657;SDS011;10488;50.846;4.078;2022-08-18T06:55:48;138.30;;;68.55;;
20657;SDS011;10488;50.846;4.078;2022-08-18T07:03:16;120.43;;;63.90;;
20657;SDS011;10488;50.846;4.078;2022-08-18T07:06:01;113.35;;;63.83;;
20657;SDS011;10488;50.846;4.078;2022-08-18T07:08:35;91.22;;;54.35;;
20657;SDS011;10488;50.846;4.078;2022-08-18T07:13:54;77.70;;;51.17;;
20657;SDS011;10488;50.846;4.078;2022-08-18T07:16:37;68.13;;;47.40;;
20657;SDS011;10488;50.846;4.078;2022-08-18T07:19:07;68.38;;;46.70;;
20657;SDS011;10488;50.846;4.078;2022-08-18T07:22:08;70.40;;;45.83;;
20657;SDS011;10488;50.846;4.078;2022-08-18T07:27:18;66.25;;;45.47;;
20657;SDS011;10488;50.846;4.078;2022-08-18T07:30:06;65.00;;;44.97;;
20657;SDS011;10488;50.846;4.078;2022-08-18T07:35:27;55.50;;;41.60;;
20657;SDS011;10488;50.846;4.078;2022-08-18T07:37:59;55.92;;;40.05;;
20657;SDS011;10488;50.846;4.078;2022-08-18T07:40:40;60.63;;;43.78;;
20657;SDS011;10488;50.846;4.078;2022-08-18T07:43:31;59.95;;;42.33;;
20657;SDS011;10488;50.846;4.078;2022-08-18T07:46:11;55.08;;;39.63;;
20657;SDS011;10488;50.846;4.078;2022-08-18T07:48:41;59.35;;;42.83;;
20657;SDS011;10488;50.846;4.078;2022-08-18T07:51:24;50.08;;;37.38;;
20657;SDS011;10488;50.846;4.078;2022-08-18T07:54:08;44.80;;;33.78;;
20657;SDS011;10488;50.846;4.078;2022-08-18T07:57:38;53.38;;;39.10;;
20657;SDS011;10488;50.846;4.078;2022-08-18T08:02:48;41.28;;;29.52;;
20657;SDS011;10488;50.846;4.078;2022-08-18T08:07:55;38.13;;;27.60;;
20657;SDS011;10488;50.846;4.078;2022-08-18T08:18:35;24.42;;;19.00;;
20657;SDS011;10488;50.846;4.078;2022-08-18T08:21:18;28.52;;;20.65;;
20657;SDS011;10488;50.846;4.078;2022-08-18T08:23:49;26.60;;;20.58;;
20657;SDS011;10488;50.846;4.078;2022-08-18T08:34:45;22.15;;;17.17;;
20657;SDS011;10488;50.846;4.078;2022-08-18T08:37:14;24.90;;;18.55;;
20657;SDS011;10488;50.846;4.078;2022-08-18T08:39:45;22.20;;;17.25;;
20657;SDS011;10488;50.846;4.078;2022-08-18T08:42:22;23.27;;;16.60;;
20657;SDS011;10488;50.846;4.078;2022-08-18T08:45:12;24.38;;;18.70;;
20657;SDS011;10488;50.846;4.078;2022-08-18T08:50:24;21.13;;;17.23;;
20657;SDS011;10488;50.846;4.078;2022-08-18T08:53:00;23.60;;;18.13;;
20657;SDS011;10488;50.846;4.078;2022-08-18T08:55:36;22.77;;;17.02;;
20657;SDS011;10488;50.846;4.078;2022-08-18T09:00:38;20.05;;;17.23;;
20657;SDS011;10488;50.846;4.078;2022-08-18T09:22:22;21.58;;;19.23;;
20657;SDS011;10488;50.846;4.078;2022-08-18T09:24:53;19.95;;;17.58;;
20657;SDS011;10488;50.846;4.078;2022-08-18T09:30:01;20.48;;;18.30;;
20657;SDS011;10488;50.846;4.078;2022-08-18T09:32:54;22.30;;;19.00;;
20657;SDS011;10488;50.846;4.078;2022-08-18T09:37:53;24.88;;;22.20;;
20657;SDS011;10488;50.846;4.078;2022-08-18T09:40:52;25.35;;;20.38;;
20657;SDS011;10488;50.846;4.078;2022-08-18T09:51:52;22.08;;;19.77;;
20657;SDS011;10488;50.846;4.078;2022-08-18T09:54:26;21.40;;;19.10;;
20657;SDS011;10488;50.846;4.078;2022-08-18T10:04:35;22.75;;;20.33;;
20657;SDS011;10488;50.846;4.078;2022-08-18T10:07:20;21.38;;;17.17;;
20657;SDS011;10488;50.846;4.078;2022-08-18T10:10:06;20.50;;;18.30;;
20657;SDS011;10488;50.846;4.078;2022-08-18T10:15:48;22.65;;;20.25;;
20657;SDS011;10488;50.846;4.078;2022-08-18T10:21:16;27.02;;;22.90;;
20657;SDS011;10488;50.846;4.078;2022-08-18T10:37:24;24.23;;;21.63;;
20657;SDS011;10488;50.846;4.078;2022-08-18T10:39:59;21.50;;;19.23;;
20657;SDS011;10488;50.846;4.078;2022-08-18T10:42:59;21.60;;;19.00;;
20657;SDS011;10488;50.846;4.078;2022-08-18T10:45:42;13.38;;;12.15;;
20657;SDS011;10488;50.846;4.078;2022-08-18T10:50:49;16.05;;;14.18;;
20657;SDS011;10488;50.846;4.078;2022-08-18T10:53:22;18.02;;;16.05;;
20657;SDS011;10488;50.846;4.078;2022-08-18T11:02:10;17.33;;;13.43;;
20657;SDS011;10488;50.846;4.078;2022-08-18T11:04:56;17.85;;;14.07;;
20657;SDS011;10488;50.846;4.078;2022-08-18T11:07:24;14.43;;;13.02;;
20657;SDS011;10488;50.846;4.078;2022-08-18T11:09:52;14.95;;;13.50;;
20657;SDS011;10488;50.846;4.078;2022-08-18T11:15:27;14.93;;;11.70;;
20657;SDS011;10488;50.846;4.078;2022-08-18T11:20:39;12.40;;;11.20;;
20657;SDS011;10488;50.846;4.078;2022-08-18T11:23:10;12.88;;;11.52;;
20657;SDS011;10488;50.846;4.078;2022-08-18T11:25:38;15.90;;;13.43;;
20657;SDS011;10488;50.846;4.078;2022-08-18T11:28:19;13.82;;;12.52;;
20657;SDS011;10488;50.846;4.078;2022-08-18T11:30:48;18.63;;;16.70;;
20657;SDS011;10488;50.846;4.078;2022-08-18T11:33:17;26.13;;;19.05;;
20657;SDS011;10488;50.846;4.078;2022-08-18T11:35:56;22.48;;;19.45;;
20657;SDS011;10488;50.846;4.078;2022-08-18T11:38:23;21.10;;;18.98;;
20657;SDS011;10488;50.846;4.078;2022-08-18T11:41:08;19.77;;;17.77;;
20657;SDS011;10488;50.846;4.078;2022-08-18T11:43:38;20.17;;;18.17;;
20657;SDS011;10488;50.846;4.078;2022-08-18T11:48:48;15.55;;;13.82;;
20657;SDS011;10488;50.846;4.078;2022-08-18T12:07:03;18.05;;;15.90;;
20657;SDS011;10488;50.846;4.078;2022-08-18T12:09:43;19.67;;;17.65;;
20657;SDS011;10488;50.846;4.078;2022-08-18T12:12:16;19.42;;;17.35;;
20657;SDS011;10488;50.846;4.078;2022-08-18T12:14:50;20.33;;;18.20;;
20657;SDS011;10488;50.846;4.078;2022-08-18T12:17:17;23.08;;;17.80;;
20657;SDS011;10488;50.846;4.078;2022-08-18T12:19:43;20.65;;;17.08;;
20657;SDS011;10488;50.846;4.078;2022-08-18T12:22:14;20.48;;;17.30;;
20657;SDS011;10488;50.846;4.078;2022-08-18T12:24:45;19.25;;;17.20;;
20657;SDS011;10488;50.846;4.078;2022-08-18T12:27:11;17.15;;;15.45;;
20657;SDS011;10488;50.846;4.078;2022-08-18T12:29:41;15.10;;;13.38;;
20657;SDS011;10488;50.846;4.078;2022-08-18T12:32:08;14.95;;;12.65;;
20657;SDS011;10488;50.846;4.078;2022-08-18T12:34:34;16.55;;;14.95;;
20657;SDS011;10488;50.846;4.078;2022-08-18T12:36:59;17.17;;;15.45;;
20657;SDS011;10488;50.846;4.078;2022-08-18T12:39:26;13.85;;;12.48;;
20657;SDS011;10488;50.846;4.078;2022-08-18T12:41:53;12.18;;;9.73;;
20657;SDS011;10488;50.846;4.078;2022-08-18T12:44:19;13.75;;;11.95;;
20657;SDS011;10488;50.846;4.078;2022-08-18T12:46:45;12.90;;;10.68;;
20657;SDS011;10488;50.846;4.078;2022-08-18T12:49:16;11.90;;;10.80;;
20657;SDS011;10488;50.846;4.078;2022-08-18T12:51:43;15.48;;;10.50;;
20657;SDS011;10488;50.846;4.078;2022-08-18T12:54:09;10.63;;;9.57;;
20657;SDS011;10488;50.846;4.078;2022-08-18T12:56:35;9.90;;;8.23;;
20657;SDS011;10488;50.846;4.078;2022-08-18T12:59:03;10.63;;;9.65;;
20657;SDS011;10488;50.846;4.078;2022-08-18T13:01:31;13.07;;;11.43;;
20657;SDS011;10488;50.846;4.078;2022-08-18T13:03:58;12.93;;;10.00;;
20657;SDS011;10488;50.846;4.078;2022-08-18T13:06:25;13.73;;;10.82;;
20657;SDS011;10488;50.846;4.078;2022-08-18T13:08:51;13.02;;;11.60;;
20657;SDS011;10488;50.846;4.078;2022-08-18T13:11:19;14.88;;;12.57;;
20657;SDS011;10488;50.846;4.078;2022-08-18T13:13:46;13.60;;;12.20;;
20657;SDS011;10488;50.846;4.078;2022-08-18T13:16:13;12.40;;;11.20;;
20657;SDS011;10488;50.846;4.078;2022-08-18T13:18:39;14.80;;;12.90;;
20657;SDS011;10488;50.846;4.078;2022-08-18T13:21:08;12.68;;;11.50;;
20657;SDS011;10488;50.846;4.078;2022-08-18T13:23:36;14.73;;;13.25;;
20657;SDS011;10488;50.846;4.078;2022-08-18T13:26:03;13.52;;;12.13;;
20657;SDS011;10488;50.846;4.078;2022-08-18T13:28:32;11.82;;;10.60;;
20657;SDS011;10488;50.846;4.078;2022-08-18T13:30:58;12.95;;;11.75;;
20657;SDS011;10488;50.846;4.078;2022-08-18T13:33:25;15.70;;;13.95;;
20657;SDS011;10488;50.846;4.078;2022-08-18T13:35:51;16.23;;;12.43;;
20657;SDS011;10488;50.846;4.078;2022-08-18T13:38:18;15.07;;;13.48;;
20657;SDS011;10488;50.846;4.078;2022-08-18T13:40:47;14.77;;;13.35;;
20657;SDS011;10488;50.846;4.078;2022-08-18T13:43:15;13.75;;;12.40;;
20657;SDS011;10488;50.846;4.078;2022-08-18T13:45:44;15.35;;;13.27;;
20657;SDS011;10488;50.846;4.078;2022-08-18T13:48:13;15.85;;;14.18;;
20657;SDS011;10488;50.846;4.078;2022-08-18T13:50:40;18.52;;;13.32;;
20657;SDS011;10488;50.846;4.078;2022-08-18T13:53:07;16.50;;;13.40;;
20657;SDS011;10488;50.846;4.078;2022-08-18T13:55:45;12.48;;;11.18;;
20657;SDS011;10488;50.846;4.078;2022-08-18T13:58:12;15.20;;;11.80;;
20657;SDS011;10488;50.846;4.078;2022-08-18T14:00:38;12.95;;;11.32;;
20657;SDS011;10488;50.846;4.078;2022-08-18T14:03:05;13.18;;;11.85;;
20657;SDS011;10488;50.846;4.078;2022-08-18T14:05:32;12.57;;;11.32;;
20657;SDS011;10488;50.846;4.078;2022-08-18T14:07:58;17.60;;;13.35;;
20657;SDS011;10488;50.846;4.078;2022-08-18T14:10:25;15.30;;;12.18;;
20657;SDS011;10488;50.846;4.078;2022-08-18T14:12:52;12.55;;;11.38;;
20657;SDS011;10488;50.846;4.078;2022-08-18T14:15:21;14.00;;;12.63;;
20657;SDS011;10488;50.846;4.078;2022-08-18T14:17:48;15.25;;;13.43;;
20657;SDS011;10488;50.846;4.078;2022-08-18T14:20:14;18.48;;;15.32;;
20657;SDS011;10488;50.846;4.078;2022-08-18T14:22:59;14.48;;;13.07;;
20657;SDS011;10488;50.846;4.078;2022-08-18T14:25:44;17.70;;;13.98;;
20657;SDS011;10488;50.846;4.078;2022-08-18T14:28:28;12.15;;;10.95;;
20657;SDS011;10488;50.846;4.078;2022-08-18T14:30:56;15.90;;;14.30;;
20657;SDS011;10488;50.846;4.078;2022-08-18T14:33:23;14.40;;;12.90;;
20657;SDS011;10488;50.846;4.078;2022-08-18T14:35:50;14.32;;;12.45;;
20657;SDS011;10488;50.846;4.078;2022-08-18T14:38:16;16.05;;;14.40;;
20657;SDS011;10488;50.846;4.078;2022-08-18T14:40:43;15.93;;;14.02;;
20657;SDS011;10488;50.846;4.078;2022-08-18T14:43:11;19.10;;;15.07;;
20657;SDS011;10488;50.846;4.078;2022-08-18T14:45:38;14.73;;;13.25;;
20657;SDS011;10488;50.846;4.078;2022-08-18T14:48:12;16.50;;;14.90;;
20657;SDS011;10488;50.846;4.078;2022-08-18T14:50:40;17.52;;;13.35;;
20657;SDS011;10488;50.846;4.078;2022-08-18T14:53:08;18.38;;;16.42;;
20657;SDS011;10488;50.846;4.078;2022-08-18T14:55:34;15.38;;;13.85;;
20657;SDS011;10488;50.846;4.078;2022-08-18T14:58:02;13.38;;;11.98;;
20657;SDS011;10488;50.846;4.078;2022-08-18T15:00:28;14.95;;;13.40;;
20657;SDS011;10488;50.846;4.078;2022-08-18T15:02:54;14.43;;;13.00;;
20657;SDS011;10488;50.846;4.078;2022-08-18T15:05:21;17.90;;;12.10;;
20657;SDS011;10488;50.846;4.078;2022-08-18T15:07:47;13.73;;;12.23;;
20657;SDS011;10488;50.846;4.078;2022-08-18T15:10:13;12.88;;;10.82;;
20657;SDS011;10488;50.846;4.078;2022-08-18T15:12:40;11.70;;;10.30;;
20657;SDS011;10488;50.846;4.078;2022-08-18T15:15:09;13.75;;;10.10;;
20657;SDS011;10488;50.846;4.078;2022-08-18T15:17:39;12.95;;;9.52;;
20657;SDS011;10488;50.846;4.078;2022-08-18T15:20:05;13.55;;;8.73;;
20657;SDS011;10488;50.846;4.078;2022-08-18T15:22:39;12.25;;;8.57;;
20657;SDS011;10488;50.846;4.078;2022-08-18T15:25:24;10.85;;;8.95;;
20657;SDS011;10488;50.846;4.078;2022-08-18T15:28:17;11.82;;;10.65;;
20657;SDS011;10488;50.846;4.078;2022-08-18T15:30:45;13.35;;;9.45;;
20657;SDS011;10488;50.846;4.078;2022-08-18T15:33:12;11.10;;;9.18;;
20657;SDS011;10488;50.846;4.078;2022-08-18T15:35:40;9.70;;;7.90;;
20657;SDS011;10488;50.846;4.078;2022-08-18T15:38:07;7.53;;;6.82;;
20657;SDS011;10488;50.846;4.078;2022-08-18T15:40:33;6.32;;;5.75;;
20657;SDS011;10488;50.846;4.078;2022-08-18T15:42:59;10.95;;;6.47;;
20657;SDS011;10488;50.846;4.078;2022-08-18T15:45:30;8.00;;;6.65;;
20657;SDS011;10488;50.846;4.078;2022-08-18T15:47:59;8.52;;;6.90;;
20657;SDS011;10488;50.846;4.078;2022-08-18T15:50:26;9.32;;;6.45;;
20657;SDS011;10488;50.846;4.078;2022-08-18T15:52:56;6.65;;;5.97;;
20657;SDS011;10488;50.846;4.078;2022-08-18T15:55:26;6.88;;;6.22;;
20657;SDS011;10488;50.846;4.078;2022-08-18T15:57:54;10.88;;;6.68;;
20657;SDS011;10488;50.846;4.078;2022-08-18T16:00:21;6.85;;;5.60;;
20657;SDS011;10488;50.846;4.078;2022-08-18T16:02:48;7.15;;;5.70;;
20657;SDS011;10488;50.846;4.078;2022-08-18T16:05:17;7.88;;;5.78;;
20657;SDS011;10488;50.846;4.078;2022-08-18T16:07:46;9.73;;;5.93;;
20657;SDS011;10488;50.846;4.078;2022-08-18T16:10:13;8.00;;;5.78;;
20657;SDS011;10488;50.846;4.078;2022-08-18T16:12:40;11.35;;;5.60;;
20657;SDS011;10488;50.846;4.078;2022-08-18T16:15:06;6.70;;;5.13;;
20657;SDS011;10488;50.846;4.078;2022-08-18T16:17:32;9.85;;;6.40;;
20657;SDS011;10488;50.846;4.078;2022-08-18T16:19:58;8.15;;;5.22;;
20657;SDS011;10488;50.846;4.078;2022-08-18T16:22:25;6.20;;;5.53;;
20657;SDS011;10488;50.846;4.078;2022-08-18T16:24:52;10.05;;;5.80;;
20657;SDS011;10488;50.846;4.078;2022-08-18T16:27:18;8.27;;;5.70;;
20657;SDS011;10488;50.846;4.078;2022-08-18T16:29:44;5.65;;;5.15;;
20657;SDS011;10488;50.846;4.078;2022-08-18T16:32:12;7.78;;;6.97;;
20657;SDS011;10488;50.846;4.078;2022-08-18T16:34:37;9.13;;;7.80;;
20657;SDS011;10488;50.846;4.078;2022-08-18T16:37:05;8.10;;;6.20;;
20657;SDS011;10488;50.846;4.078;2022-08-18T16:39:33;7.97;;;6.65;;
20657;SDS011;10488;50.846;4.078;2022-08-18T16:42:00;6.90;;;6.13;;
20657;SDS011;10488;50.846;4.078;2022-08-18T16:44:26;6.85;;;6.20;;
20657;SDS011;10488;50.846;4.078;2022-08-18T16:46:53;7.78;;;7.00;;
20657;SDS011;10488;50.846;4.078;2022-08-18T16:49:19;9.10;;;7.20;;
20657;SDS011;10488;50.846;4.078;2022-08-18T16:51:45;8.32;;;7.45;;
20657;SDS011;10488;50.846;4.078;2022-08-18T16:54:10;8.68;;;6.50;;
20657;SDS011;10488;50.846;4.078;2022-08-18T16:56:38;9.27;;;7.07;;
20657;SDS011;10488;50.846;4.078;2022-08-18T16:59:04;7.43;;;6.05;;
20657;SDS011;10488;50.846;4.078;2022-08-18T17:01:48;10.65;;;6.38;;
20657;SDS011;10488;50.846;4.078;2022-08-18T17:04:52;9.23;;;5.65;;
20657;SDS011;10488;50.846;4.078;2022-08-18T17:07:18;5.97;;;5.43;;
20657;SDS011;10488;50.846;4.078;2022-08-18T17:09:44;7.65;;;6.03;;
20657;SDS011;10488;50.846;4.078;2022-08-18T17:12:09;6.63;;;6.00;;
20657;SDS011;10488;50.846;4.078;2022-08-18T17:14:35;9.75;;;6.18;;
20657;SDS011;10488;50.846;4.078;2022-08-18T17:17:03;8.98;;;5.95;;
20657;SDS011;10488;50.846;4.078;2022-08-18T17:19:30;9.48;;;5.90;;
20657;SDS011;10488;50.846;4.078;2022-08-18T17:21:59;5.63;;;5.10;;